CYBX

Lourdes de Blanc Sablon Airport

Lourdes-De-Blanc-Sablon, Quebec, Canada
METAR CYBX 200100Z 35007KT 15SM SKC M17/M21 A2967 RMK SLP054
Observed Flight Rules
Jan-20 @ 01:00 UTC (23 minutes ago) Visual Flight Rules
Wind Visibility Clouds
350° at 7 knots 15 miles
  • Clear skies
Temperatures Readings
Current -17°C / 1°F
Dewpoint -21°C / -6°F
Humidity 71%
Altimeter 29.67" Hg
Pressure 1005.4 hPa
Elevation 35
METAR CYBX 200100Z 35007KT 15SM SKC M17/M21 A2967 RMK SLP054
Observed Flight Rules
Jan-20 @ 01:00 UTC
(23 minutes ago)
VFR
Wind Visibility
350° at 7 knots 15 miles
Clouds
  • Clear skies
Temperature Dewpoint
-17°C / 1°F -21°C / -6°F
Humidity Altimeter Pressure
71% 29.67" Hg 1005.4 hPa